Terminal Aerodrome Forecast
Issued by NWS

Home | Current Version | Previous Version | Text Only | Print | Product List | Glossary On
Versions: 1 2 3 4 5 6 7 8 9 10 11 12 13 14 15 16 17 18 19 20 21
000
FTUS46 KPDT 210524
TAFPSC
TAF
KPSC 210524Z 2106/2206 VRB04KT P6SM VCSH FEW025 SCT035 OVC050
      TEMPO 2106/2110 3SM -SHSN BR OVC025
     FM211200 35005KT P6SM SCT045 OVC060
     FM212100 VRB05KT P6SM SCT100
     FM220300 VRB04KT P6SM SKC=

USA.gov is the U.S. government's official web portal to all federal, state and local government web resources and services.